sensor_id;sensor_type;location;lat;lon;timestamp;pressure;altitude;pressure_sealevel;temperature;humidity
62703;BME280;66022;50.448;18.122;2023-03-19T00:01:43;99272.65;;;6.47;50.33
62703;BME280;66022;50.448;18.122;2023-03-19T00:05:56;99272.37;;;6.41;50.90
62703;BME280;66022;50.448;18.122;2023-03-19T00:09:51;99272.30;;;6.35;51.00
62703;BME280;66022;50.448;18.122;2023-03-19T00:13:55;99272.60;;;6.31;50.93
62703;BME280;66022;50.448;18.122;2023-03-19T00:17:59;99272.34;;;6.26;51.18
62703;BME280;66022;50.448;18.122;2023-03-19T00:22:03;99272.62;;;6.24;51.57
62703;BME280;66022;50.448;18.122;2023-03-19T00:26:07;99273.13;;;6.17;52.74
62703;BME280;66022;50.448;18.122;2023-03-19T00:30:11;99273.35;;;6.12;51.98
62703;BME280;66022;50.448;18.122;2023-03-19T00:34:15;99273.86;;;6.06;52.11
62703;BME280;66022;50.448;18.122;2023-03-19T00:38:19;99275.14;;;5.97;52.65
62703;BME280;66022;50.448;18.122;2023-03-19T00:42:23;99277.03;;;5.93;52.54
62703;BME280;66022;50.448;18.122;2023-03-19T00:46:27;99278.47;;;5.85;53.87
62703;BME280;66022;50.448;18.122;2023-03-19T00:50:31;99278.91;;;5.81;53.00
62703;BME280;66022;50.448;18.122;2023-03-19T00:54:35;99277.68;;;5.76;53.02
62703;BME280;66022;50.448;18.122;2023-03-19T00:58:42;99277.77;;;5.71;53.47
62703;BME280;66022;50.448;18.122;2023-03-19T01:02:44;99278.19;;;5.70;52.92
62703;BME280;66022;50.448;18.122;2023-03-19T01:06:48;99278.51;;;5.70;53.49
62703;BME280;66022;50.448;18.122;2023-03-19T01:10:51;99276.67;;;5.73;52.80
62703;BME280;66022;50.448;18.122;2023-03-19T01:14:55;99274.84;;;5.76;53.00
62703;BME280;66022;50.448;18.122;2023-03-19T01:18:59;99273.02;;;5.76;53.47
62703;BME280;66022;50.448;18.122;2023-03-19T01:23:03;99271.77;;;5.74;53.37
62703;BME280;66022;50.448;18.122;2023-03-19T01:27:07;99270.68;;;5.73;53.95
62703;BME280;66022;50.448;18.122;2023-03-19T01:31:11;99269.93;;;5.73;53.65
62703;BME280;66022;50.448;18.122;2023-03-19T01:35:15;99269.33;;;5.72;53.58
62703;BME280;66022;50.448;18.122;2023-03-19T01:39:19;99269.84;;;5.70;54.18
62703;BME280;66022;50.448;18.122;2023-03-19T01:43:24;99271.12;;;5.67;54.43
62703;BME280;66022;50.448;18.122;2023-03-19T01:47:31;99272.36;;;5.61;55.29
62703;BME280;66022;50.448;18.122;2023-03-19T01:51:32;99272.12;;;5.57;54.55
62703;BME280;66022;50.448;18.122;2023-03-19T01:55:35;99270.54;;;5.53;55.00
62703;BME280;66022;50.448;18.122;2023-03-19T01:59:43;99269.98;;;5.50;55.06
62703;BME280;66022;50.448;18.122;2023-03-19T02:03:43;99270.06;;;5.49;55.26
62703;BME280;66022;50.448;18.122;2023-03-19T02:07:47;99270.98;;;5.45;55.77
62703;BME280;66022;50.448;18.122;2023-03-19T02:11:51;99272.72;;;5.44;55.20
62703;BME280;66022;50.448;18.122;2023-03-19T02:15:55;99273.72;;;5.42;56.13
62703;BME280;66022;50.448;18.122;2023-03-19T02:24:22;99270.90;;;5.43;55.51
62703;BME280;66022;50.448;18.122;2023-03-19T02:28:07;99270.39;;;5.40;55.93
62703;BME280;66022;50.448;18.122;2023-03-19T02:32:11;99270.08;;;5.39;56.06
62703;BME280;66022;50.448;18.122;2023-03-19T02:36:15;99271.15;;;5.34;57.79
62703;BME280;66022;50.448;18.122;2023-03-19T02:40:21;99273.16;;;5.34;56.29
62703;BME280;66022;50.448;18.122;2023-03-19T02:44:23;99274.92;;;5.33;56.08
62703;BME280;66022;50.448;18.122;2023-03-19T02:48:27;99276.31;;;5.31;56.55
62703;BME280;66022;50.448;18.122;2023-03-19T02:52:31;99276.98;;;5.30;56.68
62703;BME280;66022;50.448;18.122;2023-03-19T02:56:35;99278.66;;;5.28;57.56
62703;BME280;66022;50.448;18.122;2023-03-19T03:00:39;99279.83;;;5.28;57.00
62703;BME280;66022;50.448;18.122;2023-03-19T03:04:43;99280.50;;;5.26;56.81
62703;BME280;66022;50.448;18.122;2023-03-19T03:08:47;99282.40;;;5.25;57.18
62703;BME280;66022;50.448;18.122;2023-03-19T03:12:51;99282.75;;;5.24;57.52
62703;BME280;66022;50.448;18.122;2023-03-19T03:16:55;99283.23;;;5.20;58.58
62703;BME280;66022;50.448;18.122;2023-03-19T03:20:59;99282.82;;;5.18;57.61
62703;BME280;66022;50.448;18.122;2023-03-19T03:25:03;99282.09;;;5.15;57.90
62703;BME280;66022;50.448;18.122;2023-03-19T03:29:07;99282.40;;;5.12;58.08
62703;BME280;66022;50.448;18.122;2023-03-19T03:33:11;99282.26;;;5.11;57.88
62703;BME280;66022;50.448;18.122;2023-03-19T03:37:15;99282.84;;;5.09;58.98
62703;BME280;66022;50.448;18.122;2023-03-19T03:41:19;99283.91;;;5.10;58.07
62703;BME280;66022;50.448;18.122;2023-03-19T03:45:23;99284.33;;;5.09;58.31
62703;BME280;66022;50.448;18.122;2023-03-19T03:49:27;99283.98;;;5.08;58.89
62703;BME280;66022;50.448;18.122;2023-03-19T03:53:31;99283.51;;;5.07;59.90
62703;BME280;66022;50.448;18.122;2023-03-19T03:57:35;99282.42;;;5.05;59.62
62703;BME280;66022;50.448;18.122;2023-03-19T04:01:39;99282.59;;;5.07;58.92
62703;BME280;66022;50.448;18.122;2023-03-19T04:05:43;99282.65;;;5.06;60.35
62703;BME280;66022;50.448;18.122;2023-03-19T04:09:47;99281.75;;;5.05;59.98
62703;BME280;66022;50.448;18.122;2023-03-19T04:13:53;99280.41;;;5.04;60.03
62703;BME280;66022;50.448;18.122;2023-03-19T04:17:55;99278.42;;;5.01;60.31
62703;BME280;66022;50.448;18.122;2023-03-19T04:21:59;99277.91;;;5.02;59.52
62703;BME280;66022;50.448;18.122;2023-03-19T04:26:03;99277.33;;;5.00;61.90
62703;BME280;66022;50.448;18.122;2023-03-19T04:30:07;99276.83;;;5.00;59.88
62703;BME280;66022;50.448;18.122;2023-03-19T04:34:12;99277.50;;;4.98;59.70
62703;BME280;66022;50.448;18.122;2023-03-19T04:38:15;99278.99;;;4.95;59.68
62703;BME280;66022;50.448;18.122;2023-03-19T04:42:19;99279.49;;;4.94;60.31
62703;BME280;66022;50.448;18.122;2023-03-19T04:46:23;99278.49;;;4.91;62.42
62703;BME280;66022;50.448;18.122;2023-03-19T04:50:27;99276.82;;;4.91;59.76
62703;BME280;66022;50.448;18.122;2023-03-19T04:54:31;99275.75;;;4.91;59.67
62703;BME280;66022;50.448;18.122;2023-03-19T04:58:35;99273.17;;;4.88;60.71
62703;BME280;66022;50.448;18.122;2023-03-19T05:02:39;99272.90;;;4.87;60.13
62703;BME280;66022;50.448;18.122;2023-03-19T05:06:43;99272.00;;;4.85;61.83
62703;BME280;66022;50.448;18.122;2023-03-19T05:10:47;99271.82;;;4.85;60.76
62703;BME280;66022;50.448;18.122;2023-03-19T05:14:51;99272.00;;;4.85;60.41
62703;BME280;66022;50.448;18.122;2023-03-19T05:18:55;99272.00;;;4.87;60.69
62703;BME280;66022;50.448;18.122;2023-03-19T05:22:59;99272.83;;;4.91;60.54
62703;BME280;66022;50.448;18.122;2023-03-19T05:27:03;99274.16;;;4.94;60.91
62703;BME280;66022;50.448;18.122;2023-03-19T05:31:07;99274.56;;;5.01;60.96
62703;BME280;66022;50.448;18.122;2023-03-19T05:35:19;99277.24;;;5.08;59.51
62703;BME280;66022;50.448;18.122;2023-03-19T05:39:16;99277.68;;;5.18;59.08
62703;BME280;66022;50.448;18.122;2023-03-19T05:43:21;99279.24;;;5.32;58.87
62703;BME280;66022;50.448;18.122;2023-03-19T05:47:23;99279.74;;;5.47;59.17
62703;BME280;66022;50.448;18.122;2023-03-19T05:51:27;99280.69;;;5.62;58.20
62703;BME280;66022;50.448;18.122;2023-03-19T05:55:31;99280.43;;;5.78;58.16
62703;BME280;66022;50.448;18.122;2023-03-19T05:59:35;99282.03;;;5.94;57.35
62703;BME280;66022;50.448;18.122;2023-03-19T06:03:39;99283.59;;;6.11;57.46
62703;BME280;66022;50.448;18.122;2023-03-19T06:07:43;99285.04;;;6.27;57.32
62703;BME280;66022;50.448;18.122;2023-03-19T06:11:47;99284.02;;;6.45;56.89
62703;BME280;66022;50.448;18.122;2023-03-19T06:15:51;99284.19;;;6.61;56.52
62703;BME280;66022;50.448;18.122;2023-03-19T06:19:55;99285.47;;;6.81;55.55
62703;BME280;66022;50.448;18.122;2023-03-19T06:23:59;99287.30;;;6.97;55.51
62703;BME280;66022;50.448;18.122;2023-03-19T06:28:03;99289.40;;;7.06;55.73
62703;BME280;66022;50.448;18.122;2023-03-19T06:32:07;99292.49;;;7.16;55.25
62703;BME280;66022;50.448;18.122;2023-03-19T06:36:11;99294.98;;;7.21;56.60
62703;BME280;66022;50.448;18.122;2023-03-19T06:40:15;99297.47;;;7.31;55.25
62703;BME280;66022;50.448;18.122;2023-03-19T06:44:19;99298.81;;;7.40;55.65
62703;BME280;66022;50.448;18.122;2023-03-19T06:48:23;99300.16;;;7.48;55.49
62703;BME280;66022;50.448;18.122;2023-03-19T06:52:27;99299.97;;;7.61;57.33
62703;BME280;66022;50.448;18.122;2023-03-19T06:56:31;99300.16;;;7.74;54.60
62703;BME280;66022;50.448;18.122;2023-03-19T07:00:35;99300.97;;;8.02;53.41
62703;BME280;66022;50.448;18.122;2023-03-19T07:04:39;99301.22;;;8.30;52.61
62703;BME280;66022;50.448;18.122;2023-03-19T07:08:43;99301.89;;;8.65;51.27
62703;BME280;66022;50.448;18.122;2023-03-19T07:12:47;99300.42;;;9.03;50.73
62703;BME280;66022;50.448;18.122;2023-03-19T07:16:51;99298.94;;;9.37;50.60
62703;BME280;66022;50.448;18.122;2023-03-19T07:20:55;99297.13;;;9.78;49.73
62703;BME280;66022;50.448;18.122;2023-03-19T07:24:59;99296.77;;;10.19;48.92
62703;BME280;66022;50.448;18.122;2023-03-19T07:29:03;99296.96;;;10.57;48.92
62703;BME280;66022;50.448;18.122;2023-03-19T07:33:07;99297.25;;;11.00;47.04
62703;BME280;66022;50.448;18.122;2023-03-19T07:37:11;99297.05;;;11.43;46.10
62703;BME280;66022;50.448;18.122;2023-03-19T07:41:16;99297.83;;;11.88;45.68
62703;BME280;66022;50.448;18.122;2023-03-19T07:45:20;99297.58;;;12.25;46.47
62703;BME280;66022;50.448;18.122;2023-03-19T07:49:23;99298.78;;;12.54;46.12
62703;BME280;66022;50.448;18.122;2023-03-19T07:53:27;99299.58;;;12.84;46.00
62703;BME280;66022;50.448;18.122;2023-03-19T07:57:31;99300.33;;;13.11;45.26
62703;BME280;66022;50.448;18.122;2023-03-19T08:01:36;99301.19;;;13.40;45.66
62703;BME280;66022;50.448;18.122;2023-03-19T08:05:39;99300.95;;;13.69;44.38
62703;BME280;66022;50.448;18.122;2023-03-19T08:09:44;99300.94;;;13.94;44.13
62703;BME280;66022;50.448;18.122;2023-03-19T08:13:47;99299.94;;;14.17;44.20
62703;BME280;66022;50.448;18.122;2023-03-19T08:21:56;99297.17;;;14.51;43.14
62703;BME280;66022;50.448;18.122;2023-03-19T08:26:00;99295.51;;;14.55;40.92
62703;BME280;66022;50.448;18.122;2023-03-19T08:30:04;99293.48;;;14.61;43.34
62703;BME280;66022;50.448;18.122;2023-03-19T08:34:08;99291.47;;;14.60;43.70
62703;BME280;66022;50.448;18.122;2023-03-19T08:38:12;99292.86;;;14.46;44.65
62703;BME280;66022;50.448;18.122;2023-03-19T08:42:16;99295.59;;;14.41;44.09
62703;BME280;66022;50.448;18.122;2023-03-19T08:46:19;99297.06;;;14.31;42.73
62703;BME280;66022;50.448;18.122;2023-03-19T08:50:23;99294.81;;;14.35;44.14
62703;BME280;66022;50.448;18.122;2023-03-19T08:54:27;99291.11;;;14.44;43.55
62703;BME280;66022;50.448;18.122;2023-03-19T08:58:32;99288.13;;;14.53;43.22
62703;BME280;66022;50.448;18.122;2023-03-19T09:02:36;99286.66;;;14.68;42.85
62703;BME280;66022;50.448;18.122;2023-03-19T09:06:40;99286.56;;;14.73;41.59
62703;BME280;66022;50.448;18.122;2023-03-19T09:10:44;99286.83;;;14.77;42.63
62703;BME280;66022;50.448;18.122;2023-03-19T09:14:48;99285.35;;;14.80;41.97
62703;BME280;66022;50.448;18.122;2023-03-19T09:18:52;99283.94;;;14.78;43.38
62703;BME280;66022;50.448;18.122;2023-03-19T09:22:56;99280.94;;;14.87;43.22
62703;BME280;66022;50.448;18.122;2023-03-19T09:27:00;99278.44;;;14.97;42.48
62703;BME280;66022;50.448;18.122;2023-03-19T09:31:07;99276.29;;;15.02;42.78
62703;BME280;66022;50.448;18.122;2023-03-19T09:35:08;99273.92;;;15.10;42.47
62703;BME280;66022;50.448;18.122;2023-03-19T09:39:12;99272.14;;;15.17;42.03
62703;BME280;66022;50.448;18.122;2023-03-19T09:51:28;99267.16;;;15.16;42.70
62703;BME280;66022;50.448;18.122;2023-03-19T09:59:33;99266.03;;;15.30;42.31
62703;BME280;66022;50.448;18.122;2023-03-19T10:15:48;99266.71;;;15.56;39.50
62703;BME280;66022;50.448;18.122;2023-03-19T10:19:53;99265.26;;;15.60;42.42
62703;BME280;66022;50.448;18.122;2023-03-19T10:24:02;99262.62;;;15.72;42.40
62703;BME280;66022;50.448;18.122;2023-03-19T10:28:00;99257.90;;;15.86;42.13
62703;BME280;66022;50.448;18.122;2023-03-19T10:36:09;99247.43;;;16.29;36.90
62703;BME280;66022;50.448;18.122;2023-03-19T10:40:21;99241.22;;;16.44;40.42
62703;BME280;66022;50.448;18.122;2023-03-19T10:48:20;99228.83;;;16.64;40.41
62703;BME280;66022;50.448;18.122;2023-03-19T10:52:27;99224.36;;;16.79;40.34
62703;BME280;66022;50.448;18.122;2023-03-19T10:56:28;99220.51;;;16.92;38.07
62703;BME280;66022;50.448;18.122;2023-03-19T11:00:32;99217.64;;;17.12;38.81
62703;BME280;66022;50.448;18.122;2023-03-19T11:04:36;99214.37;;;17.29;39.58
62703;BME280;66022;50.448;18.122;2023-03-19T11:08:40;99209.31;;;17.45;38.34
62703;BME280;66022;50.448;18.122;2023-03-19T11:16:49;99199.01;;;17.67;36.89
62703;BME280;66022;50.448;18.122;2023-03-19T11:20:57;99193.22;;;17.71;40.38
62703;BME280;66022;50.448;18.122;2023-03-19T11:24:59;99186.94;;;17.75;38.57
62703;BME280;66022;50.448;18.122;2023-03-19T11:29:00;99183.03;;;17.77;38.89
62703;BME280;66022;50.448;18.122;2023-03-19T11:41:18;99175.26;;;17.80;38.35
62703;BME280;66022;50.448;18.122;2023-03-19T11:45:19;99173.05;;;17.71;38.26
62703;BME280;66022;50.448;18.122;2023-03-19T11:49:23;99170.18;;;17.62;38.36
62703;BME280;66022;50.448;18.122;2023-03-19T11:53:29;99165.58;;;17.57;39.46
62703;BME280;66022;50.448;18.122;2023-03-19T12:13:47;99145.26;;;17.76;37.89
62703;BME280;66022;50.448;18.122;2023-03-19T12:30:11;99137.72;;;17.82;37.60
62703;BME280;66022;50.448;18.122;2023-03-19T12:42:13;99129.41;;;17.73;37.48
62703;BME280;66022;50.448;18.122;2023-03-19T12:46:24;99127.56;;;17.69;34.40
62703;BME280;66022;50.448;18.122;2023-03-19T12:50:20;99124.39;;;17.69;37.39
62703;BME280;66022;50.448;18.122;2023-03-19T12:54:27;99123.28;;;17.68;38.97
62703;BME280;66022;50.448;18.122;2023-03-19T12:58:32;99123.75;;;17.61;39.36
62703;BME280;66022;50.448;18.122;2023-03-19T13:06:37;99121.64;;;17.62;36.80
62703;BME280;66022;50.448;18.122;2023-03-19T13:10:40;99120.28;;;17.64;39.71
62703;BME280;66022;50.448;18.122;2023-03-19T13:22:54;99114.22;;;17.59;38.94
62703;BME280;66022;50.448;18.122;2023-03-19T13:26:57;99109.79;;;17.55;38.04
62703;BME280;66022;50.448;18.122;2023-03-19T13:31:04;99105.98;;;17.48;39.38
62703;BME280;66022;50.448;18.122;2023-03-19T13:35:08;99104.18;;;17.41;39.68
62703;BME280;66022;50.448;18.122;2023-03-19T13:39:15;99100.48;;;17.32;38.04
62703;BME280;66022;50.448;18.122;2023-03-19T13:51:24;99082.81;;;17.19;37.78
62703;BME280;66022;50.448;18.122;2023-03-19T13:55:28;99078.18;;;17.20;39.29
62703;BME280;66022;50.448;18.122;2023-03-19T13:59:29;99075.06;;;17.19;37.52
62703;BME280;66022;50.448;18.122;2023-03-19T14:03:35;99072.00;;;17.19;39.42
62703;BME280;66022;50.448;18.122;2023-03-19T14:07:37;99068.17;;;17.18;39.40
62703;BME280;66022;50.448;18.122;2023-03-19T14:11:40;99065.52;;;17.18;38.74
62703;BME280;66022;50.448;18.122;2023-03-19T14:15:48;99063.28;;;17.17;39.16
62703;BME280;66022;50.448;18.122;2023-03-19T14:19:49;99062.34;;;17.16;38.77
62703;BME280;66022;50.448;18.122;2023-03-19T14:23:53;99061.08;;;17.15;38.12
62703;BME280;66022;50.448;18.122;2023-03-19T14:27:58;99059.67;;;17.12;38.61
62703;BME280;66022;50.448;18.122;2023-03-19T14:36:06;99054.52;;;17.08;34.59
62703;BME280;66022;50.448;18.122;2023-03-19T14:40:10;99053.64;;;17.08;36.84
62703;BME280;66022;50.448;18.122;2023-03-19T14:52:22;99048.71;;;17.12;37.13
62703;BME280;66022;50.448;18.122;2023-03-19T14:56:25;99047.16;;;17.09;33.92
62703;BME280;66022;50.448;18.122;2023-03-19T15:00:36;99045.79;;;17.09;38.11
62703;BME280;66022;50.448;18.122;2023-03-19T15:04:32;99047.63;;;17.08;37.46
62703;BME280;66022;50.448;18.122;2023-03-19T15:08:36;99048.61;;;17.02;37.60
62703;BME280;66022;50.448;18.122;2023-03-19T15:12:45;99049.63;;;16.99;38.78
62703;BME280;66022;50.448;18.122;2023-03-19T15:20:52;99046.59;;;16.87;37.95
62703;BME280;66022;50.448;18.122;2023-03-19T15:24:52;99047.22;;;16.81;38.14
62703;BME280;66022;50.448;18.122;2023-03-19T15:28:57;99048.57;;;16.71;37.08
62703;BME280;66022;50.448;18.122;2023-03-19T15:33:00;99049.19;;;16.64;41.09
62703;BME280;66022;50.448;18.122;2023-03-19T15:37:09;99049.19;;;16.54;39.24
62703;BME280;66022;50.448;18.122;2023-03-19T15:41:08;99046.51;;;16.46;39.75
62703;BME280;66022;50.448;18.122;2023-03-19T15:45:13;99044.90;;;16.37;40.48
62703;BME280;66022;50.448;18.122;2023-03-19T15:49:34;99043.83;;;16.26;37.97
62703;BME280;66022;50.448;18.122;2023-03-19T15:53:21;99044.31;;;16.17;40.48
62703;BME280;66022;50.448;18.122;2023-03-19T15:57:25;99046.10;;;16.06;38.60
62703;BME280;66022;50.448;18.122;2023-03-19T16:01:29;99048.78;;;15.97;39.57
62703;BME280;66022;50.448;18.122;2023-03-19T16:05:32;99051.45;;;15.89;41.32
62703;BME280;66022;50.448;18.122;2023-03-19T16:09:36;99054.90;;;15.81;41.29
62703;BME280;66022;50.448;18.122;2023-03-19T16:13:41;99057.53;;;15.73;41.78
62703;BME280;66022;50.448;18.122;2023-03-19T16:17:45;99060.19;;;15.64;41.75
62703;BME280;66022;50.448;18.122;2023-03-19T16:21:48;99063.09;;;15.57;41.89
62703;BME280;66022;50.448;18.122;2023-03-19T16:25:52;99066.39;;;15.48;40.09
62703;BME280;66022;50.448;18.122;2023-03-19T16:29:57;99070.39;;;15.40;42.94
62703;BME280;66022;50.448;18.122;2023-03-19T16:34:00;99074.73;;;15.32;42.72
62703;BME280;66022;50.448;18.122;2023-03-19T16:38:05;99079.53;;;15.21;42.97
62703;BME280;66022;50.448;18.122;2023-03-19T16:46:12;99085.10;;;15.02;41.09
62703;BME280;66022;50.448;18.122;2023-03-19T16:50:17;99087.56;;;14.93;43.92
62703;BME280;66022;50.448;18.122;2023-03-19T16:54:21;99089.73;;;14.82;45.05
62703;BME280;66022;50.448;18.122;2023-03-19T16:58:42;99092.42;;;14.62;45.40
62703;BME280;66022;50.448;18.122;2023-03-19T17:02:29;99095.19;;;14.47;45.90
62703;BME280;66022;50.448;18.122;2023-03-19T17:06:33;99098.50;;;14.30;44.95
62703;BME280;66022;50.448;18.122;2023-03-19T17:10:37;99101.05;;;14.15;46.52
62703;BME280;66022;50.448;18.122;2023-03-19T17:14:41;99103.19;;;14.01;46.39
62703;BME280;66022;50.448;18.122;2023-03-19T17:18:44;99105.13;;;13.84;46.74
62703;BME280;66022;50.448;18.122;2023-03-19T17:22:49;99105.95;;;13.70;46.52
62703;BME280;66022;50.448;18.122;2023-03-19T17:26:53;99107.45;;;13.53;47.05
62703;BME280;66022;50.448;18.122;2023-03-19T17:30:57;99110.10;;;13.38;47.10
62703;BME280;66022;50.448;18.122;2023-03-19T17:35:00;99111.22;;;13.22;47.61
62703;BME280;66022;50.448;18.122;2023-03-19T17:39:05;99113.87;;;13.04;47.65
62703;BME280;66022;50.448;18.122;2023-03-19T17:43:09;99116.99;;;12.89;48.07
62703;BME280;66022;50.448;18.122;2023-03-19T17:47:13;99119.95;;;12.74;48.27
62703;BME280;66022;50.448;18.122;2023-03-19T17:51:17;99122.75;;;12.63;48.24
62703;BME280;66022;50.448;18.122;2023-03-19T17:55:22;99123.61;;;12.52;48.35
62703;BME280;66022;50.448;18.122;2023-03-19T17:59:24;99124.56;;;12.41;48.66
62703;BME280;66022;50.448;18.122;2023-03-19T18:03:28;99124.39;;;12.33;49.07
62703;BME280;66022;50.448;18.122;2023-03-19T18:07:33;99124.20;;;12.23;48.82
62703;BME280;66022;50.448;18.122;2023-03-19T18:11:36;99123.38;;;12.14;48.77
62703;BME280;66022;50.448;18.122;2023-03-19T18:15:41;99123.56;;;12.05;49.74
62703;BME280;66022;50.448;18.122;2023-03-19T18:19:45;99124.70;;;11.96;49.47
62703;BME280;66022;50.448;18.122;2023-03-19T18:23:49;99126.17;;;11.87;49.51
62703;BME280;66022;50.448;18.122;2023-03-19T18:27:52;99126.47;;;11.77;49.45
62703;BME280;66022;50.448;18.122;2023-03-19T18:31:58;99126.67;;;11.70;49.88
62703;BME280;66022;50.448;18.122;2023-03-19T18:36:00;99126.56;;;11.59;49.80
62703;BME280;66022;50.448;18.122;2023-03-19T18:40:05;99127.44;;;11.53;50.49
62703;BME280;66022;50.448;18.122;2023-03-19T18:44:14;99128.19;;;11.46;50.05
62703;BME280;66022;50.448;18.122;2023-03-19T18:52:17;99130.28;;;11.38;49.70
62703;BME280;66022;50.448;18.122;2023-03-19T18:56:28;99132.06;;;11.34;48.46
62703;BME280;66022;50.448;18.122;2023-03-19T19:04:29;99134.86;;;11.33;49.77
62703;BME280;66022;50.448;18.122;2023-03-19T19:08:33;99136.44;;;11.28;50.52
62703;BME280;66022;50.448;18.122;2023-03-19T19:12:38;99138.84;;;11.26;50.49
62703;BME280;66022;50.448;18.122;2023-03-19T19:16:41;99141.05;;;11.18;50.79
62703;BME280;66022;50.448;18.122;2023-03-19T19:20:45;99143.08;;;11.15;50.89
62703;BME280;66022;50.448;18.122;2023-03-19T19:24:49;99145.51;;;11.09;51.11
62703;BME280;66022;50.448;18.122;2023-03-19T19:28:56;99147.14;;;11.02;50.67
62703;BME280;66022;50.448;18.122;2023-03-19T19:37:04;99149.80;;;10.99;50.41
62703;BME280;66022;50.448;18.122;2023-03-19T19:41:07;99151.43;;;11.01;50.66
62703;BME280;66022;50.448;18.122;2023-03-19T19:45:17;99151.29;;;11.03;50.97
62703;BME280;66022;50.448;18.122;2023-03-19T19:49:14;99152.03;;;11.01;51.03
62703;BME280;66022;50.448;18.122;2023-03-19T19:53:17;99153.09;;;10.99;51.50
62703;BME280;66022;50.448;18.122;2023-03-19T19:57:21;99152.71;;;10.94;52.07
62703;BME280;66022;50.448;18.122;2023-03-19T20:01:25;99152.76;;;10.89;51.78
62703;BME280;66022;50.448;18.122;2023-03-19T20:05:29;99153.35;;;10.82;52.02
62703;BME280;66022;50.448;18.122;2023-03-19T20:09:33;99155.39;;;10.71;52.16
62703;BME280;66022;50.448;18.122;2023-03-19T20:13:37;99157.23;;;10.61;52.15
62703;BME280;66022;50.448;18.122;2023-03-19T20:17:41;99158.60;;;10.49;52.42
62703;BME280;66022;50.448;18.122;2023-03-19T20:21:45;99160.11;;;10.38;52.60
62703;BME280;66022;50.448;18.122;2023-03-19T20:25:49;99162.36;;;10.26;52.87
62703;BME280;66022;50.448;18.122;2023-03-19T20:29:53;99164.37;;;10.15;53.00
62703;BME280;66022;50.448;18.122;2023-03-19T20:34:00;99166.69;;;10.05;53.25
62703;BME280;66022;50.448;18.122;2023-03-19T20:38:01;99167.89;;;9.92;53.75
62703;BME280;66022;50.448;18.122;2023-03-19T20:42:07;99167.92;;;9.82;53.79
62703;BME280;66022;50.448;18.122;2023-03-19T20:46:09;99168.08;;;9.70;55.00
62703;BME280;66022;50.448;18.122;2023-03-19T20:50:17;99168.81;;;9.62;54.40
62703;BME280;66022;50.448;18.122;2023-03-19T20:54:17;99168.98;;;9.54;54.91
62703;BME280;66022;50.448;18.122;2023-03-19T20:58:24;99169.39;;;9.41;55.47
62703;BME280;66022;50.448;18.122;2023-03-19T21:02:25;99170.09;;;9.36;54.81
62703;BME280;66022;50.448;18.122;2023-03-19T21:06:29;99170.42;;;9.27;57.58
62703;BME280;66022;50.448;18.122;2023-03-19T21:14:37;99171.36;;;9.18;55.50
62703;BME280;66022;50.448;18.122;2023-03-19T21:18:41;99172.22;;;9.11;55.82
62703;BME280;66022;50.448;18.122;2023-03-19T21:22:49;99174.88;;;9.08;55.91
62703;BME280;66022;50.448;18.122;2023-03-19T21:26:49;99176.92;;;9.01;57.40
62703;BME280;66022;50.448;18.122;2023-03-19T21:30:53;99177.78;;;8.95;56.82
62703;BME280;66022;50.448;18.122;2023-03-19T21:34:57;99177.94;;;8.90;56.14
62703;BME280;66022;50.448;18.122;2023-03-19T21:39:01;99179.15;;;8.87;55.58
62703;BME280;66022;50.448;18.122;2023-03-19T21:43:05;99180.40;;;8.88;56.06
62703;BME280;66022;50.448;18.122;2023-03-19T21:47:18;99180.89;;;8.84;57.01
62703;BME280;66022;50.448;18.122;2023-03-19T21:51:13;99182.96;;;8.81;57.20
62703;BME280;66022;50.448;18.122;2023-03-19T21:55:17;99184.16;;;8.75;57.71
62703;BME280;66022;50.448;18.122;2023-03-19T21:59:23;99183.96;;;8.64;58.83
62703;BME280;66022;50.448;18.122;2023-03-19T22:03:25;99183.07;;;8.52;58.89
62703;BME280;66022;50.448;18.122;2023-03-19T22:07:29;99181.94;;;8.40;59.05
62703;BME280;66022;50.448;18.122;2023-03-19T22:11:34;99181.31;;;8.32;58.32
62703;BME280;66022;50.448;18.122;2023-03-19T22:15:37;99180.66;;;8.26;58.04
62703;BME280;66022;50.448;18.122;2023-03-19T22:19:41;99179.69;;;8.22;58.79
62703;BME280;66022;50.448;18.122;2023-03-19T22:23:45;99178.55;;;8.20;57.89
62703;BME280;66022;50.448;18.122;2023-03-19T22:27:49;99178.16;;;8.18;58.73
62703;BME280;66022;50.448;18.122;2023-03-19T22:31:53;99177.20;;;8.16;58.85
62703;BME280;66022;50.448;18.122;2023-03-19T22:35:57;99176.61;;;8.10;61.39
62703;BME280;66022;50.448;18.122;2023-03-19T22:40:01;99174.64;;;8.06;59.84
62703;BME280;66022;50.448;18.122;2023-03-19T22:44:09;99173.03;;;8.02;60.15
62703;BME280;66022;50.448;18.122;2023-03-19T22:48:13;99173.56;;;7.94;61.06
62703;BME280;66022;50.448;18.122;2023-03-19T22:52:13;99172.94;;;7.91;60.49
62703;BME280;66022;50.448;18.122;2023-03-19T22:56:17;99173.27;;;7.84;63.66
62703;BME280;66022;50.448;18.122;2023-03-19T23:00:21;99174.20;;;7.83;60.56
62703;BME280;66022;50.448;18.122;2023-03-19T23:04:26;99174.73;;;7.81;60.90
62703;BME280;66022;50.448;18.122;2023-03-19T23:08:29;99174.38;;;7.75;61.38
62703;BME280;66022;50.448;18.122;2023-03-19T23:12:33;99173.95;;;7.75;60.92
62703;BME280;66022;50.448;18.122;2023-03-19T23:16:37;99172.49;;;7.71;63.74
62703;BME280;66022;50.448;18.122;2023-03-19T23:20:41;99170.31;;;7.71;61.25
62703;BME280;66022;50.448;18.122;2023-03-19T23:24:45;99167.60;;;7.70;61.63
62703;BME280;66022;50.448;18.122;2023-03-19T23:28:49;99166.60;;;7.67;61.86
62703;BME280;66022;50.448;18.122;2023-03-19T23:32:53;99164.84;;;7.67;61.53
62703;BME280;66022;50.448;18.122;2023-03-19T23:36:57;99163.40;;;7.64;63.59
62703;BME280;66022;50.448;18.122;2023-03-19T23:41:01;99161.89;;;7.63;62.40
62703;BME280;66022;50.448;18.122;2023-03-19T23:45:05;99160.52;;;7.59;62.66
62703;BME280;66022;50.448;18.122;2023-03-19T23:53:21;99158.58;;;7.46;62.81